Latest Weather Observations for Central Arnhem Plateau

IDD60801

Issued at 11:31 pm CST Monday 22 December 2014 (issued every 30 minutes, with the page automatically refreshed every 10 minutes)

About weather observations | Map of weather stations | Latest weather observations for NT | Other Formats
Station Details ID: 014909 Name: CENTRAL ARNHEM PLATEAU Lat: -13.33 Lon: 133.09 Height: 416.0 m
Data from the previous 72 hours. | See also: Recent months for locations in Northern Territory
Date/Time
CST
Temp
°C
App
Temp
°C
Dew
Point
Rel
Hum
%
Delta-T
°C
Wind Press
QNH
hPa
Press
MSL
hPa
Rain
since 9 am
mm
Dir
 
Spd
km/h
Gust
km/h
Spd
kts
Gust
kts
22/11:30pm 26.0 28.7 21.4 76 3.1 NW 9 13 5 7 1011.0 1007.9 0.0
22/11:00pm 25.5 28.7 21.6 79 2.6 W 7 11 4 6 1010.9 1007.8 0.0
22/10:30pm 24.1 24.7 21.0 83 2.1 SSW 19 24 10 13 1011.1 1008.0 0.0
22/10:00pm 24.9 23.9 18.8 69 3.9 SE 22 32 12 17 1011.2 1008.1 0.0
22/09:30pm 26.5 27.9 18.6 62 5.1 SSW 9 20 5 11 1011.0 1007.9 0.0
22/09:00pm 28.3 29.6 21.6 67 4.6 NW 17 24 9 13 1010.0 1006.9 0.0
22/08:30pm 28.6 29.1 20.9 63 5.2 NW 19 28 10 15 1009.5 1006.3 0.0
22/08:00pm 30.6 32.3 20.2 53 7.0 WNW 11 15 6 8 1009.1 1005.9 0.0
22/07:30pm 30.8 32.1 20.1 53 7.2 WNW 13 17 7 9 1008.6 1005.5 0.0
22/07:00pm 31.1 32.6 19.8 51 7.5 NW 11 17 6 9 1008.0 1004.9 0.0
22/06:30pm 31.6 33.2 19.9 50 7.9 NNW 11 15 6 8 1007.7 1004.5 0.0
22/06:00pm 32.3 33.9 19.2 46 8.7 N 9 17 5 9 1007.5 1004.3 0.0
22/05:30pm 33.2 34.5 18.5 41 9.7 NNW 9 13 5 7 1007.6 1004.4 0.0
22/05:00pm 32.7 33.6 18.5 43 9.4 N 11 17 6 9 1007.6 1004.4 0.0
22/04:30pm 33.5 33.5 17.2 37 10.6 NNW 13 17 7 9 1007.5 1004.3 0.0
22/04:00pm 33.2 33.3 17.4 39 10.3 NNE 13 20 7 11 1007.6 1004.4 0.0
22/03:30pm 33.3 32.5 16.2 36 11.0 ENE 15 20 8 11 1008.1 1005.0 0.0
22/03:00pm 33.0 33.1 15.5 35 11.1 ENE 9 17 5 9 1008.7 1005.6 0.0
22/02:30pm 32.7 32.8 16.5 37 10.4 N 11 19 6 10 1009.2 1006.0 0.0
22/02:00pm 32.7 32.2 17.7 40 9.8 N 17 26 9 14 1009.7 1006.5 0.0
22/01:30pm 31.9 31.5 18.1 43 9.0 N 17 28 9 15 1010.1 1007.0 0.0
22/01:00pm 32.0 34.3 20.6 51 7.7 NNE 9 20 5 11 1010.4 1007.3 0.0
22/12:30pm 31.2 31.6 18.9 48 8.1 NE 15 19 8 10 1010.6 1007.5 0.0
22/12:00pm 30.8 31.7 19.2 50 7.7 N 13 24 7 13 1011.0 1007.9 0.0
22/11:30am 30.4 31.3 18.5 49 7.8 NE 11 15 6 8 1011.5 1008.3 0.0
22/11:00am 29.9 31.6 21.0 59 6.0 NNE 13 24 7 13 1011.9 1008.7 0.0
22/10:30am 29.1 32.3 21.6 64 5.1 N 7 13 4 7 1012.0 1008.8 0.0
22/10:00am 28.2 31.1 21.7 68 4.4 NNE 9 15 5 8 1012.2 1009.1 0.0
22/09:30am 27.7 30.2 21.0 67 4.5 NE 9 15 5 8 1012.4 1009.3 0.0
22/09:00am 27.6 30.6 21.9 71 3.9 NE 9 11 5 6 1012.4 1009.3 0.0
22/08:30am 26.6 28.7 20.9 71 3.8 NE 11 15 6 8 1012.3 1009.2 0.0
22/08:00am 26.2 28.4 21.2 74 3.4 NE 11 13 6 7 1012.2 1009.1 0.0
22/07:30am 25.7 28.5 21.6 78 2.8 NE 9 11 5 6 1012.0 1008.8 0.0
22/07:00am 25.5 28.4 20.7 75 3.2 E 6 9 3 5 1011.7 1008.5 0.0
22/06:30am 25.5 28.4 20.7 75 3.2 E 6 9 3 5 1011.0 1007.9 0.0
22/06:00am 25.7 28.6 20.7 74 3.3 SE 6 7 3 4 1010.5 1007.4 0.0
22/05:30am 25.7 29.0 20.7 74 3.3 E 4 7 2 4 1010.9 1007.8 0.0
22/05:00am 25.6 29.3 20.8 75 3.2 SE 2 7 1 4 1010.5 1007.4 0.0
22/04:30am 25.6 28.6 20.8 75 3.2 SE 6 9 3 5 1010.2 1007.1 0.0
22/04:00am 25.9 28.4 21.1 75 3.2 S 9 11 5 6 1009.9 1006.7 0.0
22/03:30am 26.1 28.8 21.3 75 3.2 SE 9 13 5 7 1010.1 1007.0 0.0
22/03:00am 26.1 28.4 22.0 78 2.8 SE 13 19 7 10 1010.0 1006.9 0.0
22/02:30am 26.3 31.0 21.9 77 3.0 CALM 0 4 0 2 1009.9 1006.7 0.0
22/02:00am 26.3 29.8 21.9 77 3.0 NNW 6 7 3 4 1010.1 1007.0 0.0
22/01:30am 26.7 29.5 21.5 73 3.5 NE 9 11 5 6 1010.6 1007.5 0.0
22/01:00am 27.5 31.5 20.6 66 4.6 CALM 0 0 0 0 1010.7 1007.6 0.0
22/12:30am 27.3 30.9 20.6 67 4.5 NNW 2 6 1 3 1010.9 1007.8 0.0
22/12:00am 27.5 30.8 20.8 67 4.5 NNW 4 7 2 4 1010.9 1007.8 0.0
 
Date/Time
CST
Temp
°C
App
Temp
°C
Dew
Point
Rel
Hum
%
Delta-T
°C
Wind Press
QNH
hPa
Press
MSL
hPa
Rain
since 9 am
mm
Dir
 
Spd
km/h
Gust
km/h
Spd
kts
Gust
kts
21/11:30pm 27.5 30.4 21.1 68 4.3 NW 7 9 4 5 1010.8 1007.7 0.0
21/11:00pm 27.8 30.2 20.9 66 4.6 NNW 9 13 5 7 1011.0 1007.9 0.0
21/10:30pm 28.7 31.4 20.2 60 5.7 N 6 9 3 5 1011.0 1007.9 0.0
21/10:00pm 28.9 30.4 19.8 58 6.0 WNW 11 15 6 8 1010.5 1007.4 0.0
21/09:30pm 29.2 30.6 19.5 56 6.4 WNW 11 17 6 9 1010.2 1007.1 0.0
21/09:00pm 29.1 31.7 20.5 59 5.8 WNW 7 9 4 5 1009.9 1006.7 0.0
21/08:30pm 29.2 31.8 20.4 59 5.9 WNW 7 11 4 6 1009.7 1006.5 0.0
21/08:00pm 29.2 30.9 20.1 58 6.1 WSW 11 15 6 8 1008.5 1005.4 0.0
21/07:30pm 29.4 30.6 20.0 57 6.3 WSW 13 20 7 11 1008.6 1005.5 0.0
21/07:00pm 29.6 31.6 20.7 58 6.0 W 11 17 6 9 1007.9 1004.8 0.0
21/06:30pm 30.1 31.2 20.4 56 6.5 WNW 15 20 8 11 1007.3 1004.1 0.0
21/06:00pm 30.3 30.6 20.5 55 6.6 W 19 24 10 13 1007.4 1004.2 0.0
21/05:30pm 30.6 31.6 21.1 57 6.5 W 17 24 9 13 1007.3 1004.1 0.0
21/05:00pm 31.1 31.5 20.7 54 7.0 W 19 30 10 16 1007.2 1004.0 0.0
21/04:30pm 31.3 31.7 19.9 50 7.6 WNW 17 26 9 14 1007.0 1003.8 0.0
21/04:00pm 31.2 32.2 21.1 55 6.9 WNW 17 20 9 11 1007.2 1004.0 0.0
21/03:30pm 31.0 31.5 20.9 55 6.9 WNW 19 28 10 15 1007.5 1004.3 0.0
21/03:00pm 31.4 32.0 19.4 49 8.0 W 15 26 8 14 1008.2 1005.1 0.0
21/02:30pm 31.6 32.7 19.6 49 8.0 NW 13 20 7 11 1009.0 1005.8 0.0
21/02:00pm 31.6 33.6 19.9 50 7.8 WNW 9 17 5 9 1009.4 1006.2 0.0
21/01:30pm 31.2 32.3 18.9 48 8.1 N 11 17 6 9 1010.0 1006.9 0.0
21/01:00pm 29.9 31.2 20.2 56 6.5 NNW 13 20 7 11 1010.5 1007.4 0.0
21/12:30pm 29.8 32.2 21.5 61 5.7 N 11 19 6 10 1010.8 1007.7 0.0
21/12:00pm 29.5 32.5 22.0 64 5.1 NW 9 17 5 9 1011.4 1008.2 0.0
21/11:30am 29.0 31.2 20.4 59 5.8 N 9 17 5 9 1011.8 1008.6 0.0
21/11:00am 28.1 30.9 20.4 63 5.1 ENE 6 15 3 8 1012.3 1009.2 0.0
21/10:30am 27.3 30.6 19.9 64 4.9 NE 2 9 1 5 1012.6 1009.5 0.0
21/10:00am 26.0 29.4 20.1 70 3.9 SE 2 7 1 4 1012.8 1009.7 0.0
21/09:30am 24.4 28.4 20.5 79 2.6 CALM 0 9 0 5 1012.9 1009.8 0.0
21/09:00am 23.8 26.5 20.7 83 2.1 NNW 7 9 4 5 1013.1 1010.0 2.4
21/08:30am 23.3 24.7 20.4 84 1.9 WNW 13 17 7 9 1013.0 1009.9 2.4
21/08:00am 23.1 25.8 20.6 86 1.7 NW 7 11 4 6 1012.9 1009.8 2.4
21/07:30am 22.5 24.1 20.0 86 1.6 W 11 17 6 9 1011.8 1008.6 2.4
21/07:00am 22.2 23.5 19.4 84 1.8 NW 11 17 6 9 1012.2 1009.1 2.4
21/06:30am 22.1 23.1 18.7 81 2.2 ESE 11 17 6 9 1011.2 1008.1 2.4
21/06:00am 23.0 21.5 18.5 76 2.9 SSE 24 37 13 20 1011.1 1008.0 2.4
21/05:30am 25.3 27.7 21.6 80 2.5 SSW 11 13 6 7 1010.4 1007.3 2.4
21/05:00am 25.4 28.1 21.3 78 2.8 WSW 9 13 5 7 1010.1 1007.0 2.4
21/04:30am 25.7 29.0 21.4 77 2.9 W 6 9 3 5 1009.9 1006.7 2.4
21/04:00am 26.3 30.5 21.7 76 3.1 NW 2 7 1 4 1010.1 1007.0 2.4
21/03:30am 26.1 29.4 21.5 76 3.1 NNW 6 7 3 4 1009.7 1006.5 2.4
21/03:00am 26.1 29.9 21.7 77 3.0 WNW 4 9 2 5 1009.8 1006.6 2.4
21/02:30am 25.9 29.1 21.6 77 2.9 NNW 7 11 4 6 1010.2 1007.1 2.4
21/02:00am 25.7 29.7 21.4 77 2.9 NNW 2 7 1 4 1010.3 1007.2 2.4
21/01:30am 25.8 30.4 21.7 78 2.8 CALM 0 7 0 4 1010.4 1007.3 2.4
21/01:00am 25.4 29.9 21.5 79 2.6 CALM 0 0 0 0 1010.9 1007.8 2.4
21/12:30am 25.2 28.6 21.7 81 2.4 NNE 6 9 3 5 1011.1 1008.0 2.4
21/12:00am 25.4 28.6 21.7 80 2.5 NE 7 11 4 6 1011.7 1008.5 2.4
 
Date/Time
CST
Temp
°C
App
Temp
°C
Dew
Point
Rel
Hum
%
Delta-T
°C
Wind Press
QNH
hPa
Press
MSL
hPa
Rain
since 9 am
mm
Dir
 
Spd
km/h
Gust
km/h
Spd
kts
Gust
kts
20/11:30pm 25.5 28.1 22.0 81 2.4 NNE 11 17 6 9 1011.7 1008.5 2.4
20/11:00pm 26.7 26.5 20.5 69 4.1 NE 22 41 12 22 1012.1 1008.9 2.4
20/10:30pm 27.3 29.5 20.4 66 4.6 NNW 9 15 5 8 1011.1 1008.0 2.4
20/10:00pm 27.2 30.1 21.0 69 4.2 NW 7 11 4 6 1010.5 1007.4 2.4
20/09:30pm 27.0 31.5 21.5 72 3.7 CALM 0 7 0 4 1010.1 1007.0 2.4
20/09:00pm 27.2 30.0 20.8 68 4.3 WNW 7 9 4 5 1009.7 1006.5 2.4
20/08:30pm 27.5 29.3 20.3 65 4.8 W 11 15 6 8 1009.5 1006.3 2.4
20/08:00pm 27.3 30.2 20.6 67 4.5 W 6 7 3 4 1009.5 1006.3 2.4
20/07:30pm 27.4 29.7 20.7 67 4.5 W 9 13 5 7 1009.3 1006.1 2.4
20/07:00pm 27.5 29.5 20.8 67 4.5 SW 11 17 6 9 1008.6 1005.5 2.4
20/06:30pm 27.7 29.8 21.0 67 4.5 W 11 17 6 9 1007.8 1004.7 2.4
20/06:00pm 28.1 29.9 20.4 63 5.2 WNW 11 15 6 8 1007.8 1004.7 2.4
20/05:30pm 27.7 30.1 20.8 66 4.6 WNW 9 15 5 8 1007.8 1004.7 2.4
20/05:00pm 27.2 28.4 20.0 64 4.8 W 13 19 7 10 1007.7 1004.5 2.4
20/04:30pm 27.8 29.1 20.9 66 4.6 SW 15 24 8 13 1007.9 1004.8 2.4
20/04:00pm 29.1 30.6 21.3 62 5.3 WSW 15 20 8 11 1007.6 1004.4 2.4
20/03:46pm 25.8 25.6 19.7 69 4.0 SW 20 26 11 14 1007.9 1004.8 2.4
20/03:30pm 30.8 30.8 21.0 56 6.7 ENE 22 35 12 19 1007.9 1004.8 0.0
20/03:00pm 33.7 34.9 18.2 39 10.2 N 9 13 5 7 1008.1 1005.0 0.0
20/02:30pm 33.3 36.2 19.0 42 9.5 ESE 2 7 1 4 1008.7 1005.6 0.0
20/02:00pm 33.1 35.1 18.8 42 9.5 WSW 6 17 3 9 1009.4 1006.2 0.0
20/01:30pm 32.8 33.8 17.8 40 9.8 SE 9 15 5 8 1009.9 1006.7 0.0
20/01:00pm 32.3 34.1 19.5 46 8.5 W 9 15 5 8 1010.5 1007.4 0.0
20/12:30pm 32.0 33.1 19.6 47 8.3 NW 13 17 7 9 1011.0 1007.9 0.0
20/12:00pm 31.6 32.4 18.2 44 8.8 WSW 11 15 6 8 1011.7 1008.5 0.0
20/11:30am 31.6 33.8 20.5 51 7.5 WNW 9 13 5 7 1012.0 1008.8 0.0
20/11:00am 31.1 33.5 20.1 52 7.4 NW 7 15 4 8 1012.3 1009.2 0.0
20/10:30am 29.9 31.5 19.9 55 6.7 WNW 11 17 6 9 1012.8 1009.7 0.0
20/10:00am 30.0 32.5 21.1 59 6.0 WNW 9 15 5 8 1013.0 1009.9 0.0
20/09:30am 28.9 31.2 20.6 61 5.6 NW 9 15 5 8 1013.3 1010.2 0.0
20/09:00am 28.3 31.0 21.3 65 4.7 WNW 9 15 5 8 1013.3 1010.2 0.0
20/08:30am 27.8 30.6 21.6 69 4.2 NW 9 13 5 7 1013.3 1010.2 0.0
20/08:00am 27.1 30.3 22.3 75 3.3 NW 9 13 5 7 1013.2 1010.1 0.0
20/07:30am 26.6 29.7 22.2 77 3.0 WNW 9 11 5 6 1013.2 1010.1 0.0
20/07:00am 26.3 29.3 21.9 77 3.0 WNW 9 13 5 7 1012.8 1009.7 0.0
20/06:30am 26.2 29.5 21.8 77 3.0 WNW 7 9 4 5 1012.1 1008.9 0.0
20/06:00am 26.2 29.5 21.8 77 3.0 NW 7 11 4 6 1011.6 1008.4 0.0
20/05:30am 26.2 29.4 21.6 76 3.1 WNW 7 13 4 7 1011.4 1008.2 0.0
20/05:00am 26.2 30.3 21.6 76 3.1 NW 2 7 1 4 1011.1 1008.0 0.0
20/04:30am 26.2 29.4 21.2 74 3.4 N 6 7 3 4 1010.7 1007.6 0.0
20/04:00am 26.4 29.6 21.2 73 3.5 NW 6 9 3 5 1010.7 1007.6 0.0
20/03:30am 26.6 28.8 21.1 72 3.7 WNW 11 15 6 8 1010.7 1007.6 0.0
20/03:00am 27.0 30.9 21.1 70 4.0 WNW 2 9 1 5 1011.2 1008.1 0.0
20/02:30am 27.1 29.2 20.9 69 4.2 SSW 11 13 6 7 1011.8 1008.6 0.0
20/02:00am 27.4 30.6 21.7 71 3.9 NW 7 11 4 6 1011.9 1008.7 0.0
20/01:30am 27.4 30.3 21.7 71 3.9 NW 9 17 5 9 1011.9 1008.7 0.0
20/01:00am 27.6 29.1 21.2 68 4.3 NW 15 19 8 10 1012.1 1008.9 0.0
20/12:30am 28.0 28.8 20.6 64 5.0 NW 17 26 9 14 1012.5 1009.4 0.0
20/12:00am 28.3 30.1 21.1 65 4.9 NW 13 20 7 11 1012.6 1009.5 0.0

Other Formats:

Comma delimited format used in spreadsheet applications
http://www.bom.gov.au/fwo/IDD60801/IDD60801.94141.axf

JavaScript Object Notation format (JSON) in row-major order
http://www.bom.gov.au/fwo/IDD60801/IDD60801.94141.json